Airfield :
LOGIN :

Register | Disclaimer

   EN    FR    IT 

 










Legend :    VFR   Marginal VFR   IFR   Intensive IFR   Very Intensive IFR
Visi :
Ceiling :
>= 8 km
>= 3000ft
5 to 8 km
1000 to 3000 ft
1500m to 5 km
500 to 1000 ft
800 to 1500m
200 to 500 ft
< 800m
< 200 ft
Symbols :   Thunderstorms  Fog  Heavy snow  Heavy precipitations  Wind > 20 kt
SIGMETs :     Misc.  Thunderstorms  Icing  Turbulence  Mountain Waves  Volcanic Ashes






- Airport Elevation : 1470 ft


LSMD - Dubendorf Military

CURRENT METAR :
  • 200420Z AUTO 14003KT 9999NDV SCT009 BKN016 OVC061 02/01 Q1016 RMK

EXPIRED METARs :
  • 200350Z AUTO 16003KT 130V190 9999NDV BKN010 BKN018 BKN034 02/01 Q1016 RMK
  • 200320Z AUTO 14003KT 360V160 9999NDV FEW009 BKN025 BKN064 02/01 Q1015 RMK
  • 200250Z AUTO 12004KT 9999NDV FEW026 BKN034 OVC053 01/01 Q1015 RMK
  • 200220Z AUTO 14003KT 110V200 9999NDV FEW002 SCT038 OVC049 01/01 Q1015 RMK
  • 200150Z AUTO 12004KT 9999NDV -RA FEW013 BKN027 OVC048 01/01 Q1015 RMK
  • 200120Z AUTO 23003KT 200V270 9999NDV -RASN FEW005 SCT016 OVC024 01/01 Q1015 RMK
  • 200050Z AUTO 27003KT 240V300 4500NDV -SN SCT008 OVC012 01/01 Q1015 RERASN RMK
  • 200020Z AUTO 03008KT 350V080 2800NDV RASN FEW007 SCT009 BKN013 02/01 Q1014 RMK
  • 192350Z AUTO 00000KT 6000NDV RASN FEW011 OVC018 05/04 Q1014 RMK
  • 192320Z AUTO 00000KT 9999NDV -RA FEW012 SCT015 OVC020 05/04 Q1014 RMK

Expired Forecast.



MET'MAP, your aeronautical weather chart ! - Copyright ORBIFLY December 2007 - Disclaimer

ORBIFLY MET'MAP TEAM :

Programming & Development : Alexandra Zaïnal
Original concept : Baudouin d'Aumeries
Technical & hardware support : Manuel Goepfert
Assistance : Marc-Olivier Méhu




SOURCES & CREDITS :

   NOAA